Time;durP1;ratioP1;P1;durP2;ratioP2;P2;SDS_P1;SDS_P2;PMS_P1;PMS_P2;Temp;Humidity;BMP_temperature;BMP_pressure;BME280_temperature;BME280_humidity;BME280_pressure;Samples;Min_cycle;Max_cycle;Signal;HPM_P1;HPM_P2
2023/05/25 00:01:15;;;;;;;14.87;6.33;;;7.80;99.90;;;;;;4926793;29;20040;-69
2023/05/25 00:03:41;;;;;;;10.95;6.05;;;7.80;99.90;;;;;;4909193;29;20484;-69
2023/05/25 00:06:07;;;;;;;15.80;6.60;;;7.70;99.90;;;;;;4931618;29;20047;-69
2023/05/25 00:08:32;;;;;;;19.13;6.80;;;7.70;99.90;;;;;;4918253;29;20358;-69
2023/05/25 00:10:58;;;;;;;16.73;6.20;;;7.60;99.90;;;;;;4913540;29;20292;-69
2023/05/25 00:13:24;;;;;;;16.33;6.43;;;7.60;99.90;;;;;;4925879;29;20488;-69
2023/05/25 00:15:50;;;;;;;18.67;6.97;;;7.60;99.90;;;;;;4905102;29;20039;-69
2023/05/25 00:18:15;;;;;;;16.63;6.30;;;7.60;99.90;;;;;;4928375;29;20043;-69
2023/05/25 00:20:43;;;;;;;18.27;7.37;;;7.60;99.90;;;;;;4933752;29;20043;-69
2023/05/25 00:23:09;;;;;;;14.77;6.28;;;7.60;99.90;;;;;;4930341;29;20043;-69
2023/05/25 00:25:35;;;;;;;15.57;7.10;;;7.50;99.90;;;;;;4922898;29;20047;-69
2023/05/25 00:28:03;;;;;;;15.37;6.87;;;7.50;99.90;;;;;;4929656;29;20055;-69
2023/05/25 00:30:29;;;;;;;17.38;7.43;;;7.50;99.90;;;;;;4945582;28;20143;-69
2023/05/25 00:32:54;;;;;;;17.83;7.13;;;7.60;99.90;;;;;;4930055;29;20127;-69
2023/05/25 00:35:20;;;;;;;20.60;8.97;;;7.50;99.90;;;;;;4918828;29;20114;-69
2023/05/25 00:37:46;;;;;;;18.60;8.10;;;7.60;99.90;;;;;;4930270;29;20043;-69
2023/05/25 00:40:15;;;;;;;15.03;7.50;;;7.60;99.90;;;;;;4920729;29;20051;-69
2023/05/25 00:42:41;;;;;;;22.42;8.52;;;7.60;99.90;;;;;;4925161;29;20051;-69
2023/05/25 00:45:07;;;;;;;21.90;8.38;;;7.60;99.90;;;;;;4913034;29;20052;-69
2023/05/25 00:47:33;;;;;;;21.15;8.50;;;7.60;99.90;;;;;;4923504;29;20043;-69
2023/05/25 00:50:00;;;;;;;22.27;8.80;;;7.60;99.90;;;;;;4928467;29;20448;-69
2023/05/25 00:52:27;;;;;;;19.77;8.40;;;7.70;99.90;;;;;;4930028;29;20486;-69
2023/05/25 00:57:44;;;;;;;12.35;6.80;;;7.70;99.90;;;;;;4920046;29;20040;-69
2023/05/25 01:00:12;;;;;;;14.55;7.18;;;7.70;99.90;;;;;;4923420;29;20044;-69
2023/05/25 01:02:42;;;;;;;14.88;7.10;;;7.60;99.90;;;;;;4928665;29;20056;-69
2023/05/25 01:05:11;;;;;;;16.70;7.70;;;7.60;99.90;;;;;;4927320;29;20044;-69
2023/05/25 01:07:37;;;;;;;15.90;7.47;;;7.60;99.90;;;;;;4917643;29;20039;-69
2023/05/25 01:10:09;;;;;;;14.57;6.30;;;7.60;99.90;;;;;;4924324;29;20048;-69
2023/05/25 01:12:37;;;;;;;17.23;6.40;;;7.60;99.90;;;;;;4933213;29;20649;-69
2023/05/25 01:15:04;;;;;;;11.50;6.22;;;7.60;99.90;;;;;;4927794;29;20500;-69
2023/05/25 01:17:31;;;;;;;16.20;6.55;;;7.50;99.90;;;;;;4925040;29;20046;-69
2023/05/25 01:20:00;;;;;;;19.80;7.78;;;7.60;99.90;;;;;;4933402;29;20064;-69
2023/05/25 01:25:58;;;;;;;15.05;7.13;;;7.60;99.90;;;;;;4926177;29;20044;-69
2023/05/25 01:28:41;;;;;;;18.60;8.52;;;7.60;99.90;;;;;;4911609;29;20084;-69
2023/05/25 01:31:08;;;;;;;20.48;8.68;;;7.60;99.90;;;;;;4942359;28;20513;-69
2023/05/25 01:33:35;;;;;;;19.42;8.52;;;7.60;99.90;;;;;;4936306;29;20526;-69
2023/05/25 01:36:02;;;;;;;17.80;8.50;;;7.60;99.90;;;;;;4911118;29;20048;-69
2023/05/25 01:38:28;;;;;;;18.85;8.13;;;7.70;99.90;;;;;;4934043;28;20577;-69
2023/05/25 01:40:53;;;;;;;19.53;7.87;;;7.70;99.90;;;;;;4945517;28;20044;-69
2023/05/25 01:43:19;;;;;;;20.80;8.20;;;7.70;99.90;;;;;;4926869;29;20122;-69
2023/05/25 01:45:46;;;;;;;20.07;8.30;;;7.70;99.90;;;;;;4931059;29;20054;-69
2023/05/25 01:48:22;;;;;;;20.38;8.38;;;7.70;99.90;;;;;;4948290;29;20048;-69
2023/05/25 01:50:59;;;;;;;18.33;7.40;;;7.70;99.90;;;;;;4908974;29;20071;-69
2023/05/25 01:53:33;;;;;;;22.13;7.57;;;7.70;99.90;;;;;;4932175;29;20447;-69
2023/05/25 01:56:03;;;;;;;21.05;8.20;;;7.70;99.90;;;;;;4929363;29;20040;-69
2023/05/25 01:58:43;;;;;;;20.27;8.02;;;7.70;99.90;;;;;;4927788;29;20543;-70
2023/05/25 02:01:09;;;;;;;22.23;7.93;;;7.70;99.90;;;;;;4899886;29;20047;-69
2023/05/25 02:03:37;;;;;;;19.92;8.50;;;7.70;99.90;;;;;;4910920;29;20103;-69
2023/05/25 02:06:03;;;;;;;15.43;7.60;;;7.70;99.90;;;;;;4928901;29;20051;-69
2023/05/25 02:08:29;;;;;;;18.00;7.53;;;7.70;99.90;;;;;;4932714;29;20055;-69
2023/05/25 02:10:54;;;;;;;16.57;7.87;;;7.70;99.90;;;;;;4930760;29;20036;-69
2023/05/25 02:13:20;;;;;;;17.23;7.73;;;7.60;99.90;;;;;;4925594;29;20044;-69
2023/05/25 02:15:46;;;;;;;23.43;7.73;;;7.60;99.90;;;;;;4925910;29;20655;-69
2023/05/25 02:18:12;;;;;;;20.67;7.90;;;7.50;99.90;;;;;;4904970;29;20047;-69
2023/05/25 02:20:38;;;;;;;20.55;7.65;;;7.50;99.90;;;;;;4914664;29;20136;-69
2023/05/25 02:23:04;;;;;;;14.37;7.43;;;7.50;99.90;;;;;;4923898;29;20200;-69
2023/05/25 02:25:30;;;;;;;14.87;7.20;;;7.40;99.90;;;;;;4906881;29;20048;-69
2023/05/25 02:27:55;;;;;;;16.67;7.27;;;7.40;99.90;;;;;;4910100;29;20300;-69
2023/05/25 02:30:21;;;;;;;20.87;8.03;;;7.30;99.90;;;;;;4926524;29;20106;-69
2023/05/25 02:32:47;;;;;;;15.90;7.30;;;7.30;99.90;;;;;;4907030;29;20143;-69
2023/05/25 02:35:12;;;;;;;16.03;7.17;;;7.20;99.90;;;;;;4911093;29;20445;-69
2023/05/25 02:37:38;;;;;;;17.07;7.17;;;7.20;99.90;;;;;;4946094;29;20078;-70
2023/05/25 02:40:05;;;;;;;15.77;7.50;;;7.20;99.90;;;;;;4936969;29;20047;-69
2023/05/25 02:42:30;;;;;;;18.20;7.22;;;7.10;99.90;;;;;;4907561;29;20033;-70
2023/05/25 02:44:56;;;;;;;17.03;7.77;;;7.10;99.90;;;;;;4927584;29;20143;-69
2023/05/25 02:47:22;;;;;;;16.23;6.97;;;7.00;99.90;;;;;;4907785;29;20050;-69
2023/05/25 02:49:48;;;;;;;24.67;8.20;;;7.00;99.90;;;;;;4928862;29;20066;-69
2023/05/25 02:52:13;;;;;;;14.93;7.83;;;6.90;99.90;;;;;;4914316;29;20043;-69
2023/05/25 02:54:40;;;;;;;15.10;6.90;;;6.90;99.90;;;;;;4901468;29;20040;-69
2023/05/25 02:57:07;;;;;;;14.48;7.35;;;6.90;99.90;;;;;;4917777;29;20055;-70
2023/05/25 02:59:33;;;;;;;13.90;7.53;;;6.90;99.90;;;;;;4931359;29;20055;-70
2023/05/25 03:01:58;;;;;;;17.33;8.33;;;6.90;99.90;;;;;;4921149;29;20072;-70
2023/05/25 03:04:25;;;;;;;13.77;7.00;;;6.90;99.90;;;;;;4913620;29;20036;-69
2023/05/25 03:06:50;;;;;;;16.45;7.22;;;6.80;99.90;;;;;;4921408;29;20087;-70
2023/05/25 03:09:16;;;;;;;16.67;8.00;;;6.90;99.90;;;;;;4923971;29;20052;-69
2023/05/25 03:11:42;;;;;;;14.73;7.00;;;6.80;99.90;;;;;;4911867;29;20068;-70
2023/05/25 03:14:09;;;;;;;18.07;7.77;;;6.80;99.90;;;;;;4928401;29;20101;-70
2023/05/25 03:16:37;;;;;;;16.48;8.05;;;6.80;99.90;;;;;;4932226;29;20043;-70
2023/05/25 03:19:06;;;;;;;19.60;7.57;;;6.80;99.90;;;;;;4928804;29;20159;-70
2023/05/25 03:21:32;;;;;;;19.60;8.40;;;6.70;99.90;;;;;;4930422;29;20170;-70
2023/05/25 03:23:58;;;;;;;22.97;7.97;;;6.70;99.90;;;;;;4908277;29;20139;-69
2023/05/25 03:26:24;;;;;;;14.27;8.07;;;6.70;99.90;;;;;;4928996;29;20043;-70
2023/05/25 03:28:51;;;;;;;19.10;8.35;;;6.80;99.90;;;;;;4905330;29;20040;-70
2023/05/25 03:31:17;;;;;;;23.20;9.43;;;6.80;99.90;;;;;;4930937;29;20047;-68
2023/05/25 03:33:43;;;;;;;22.38;9.48;;;6.80;99.90;;;;;;4928807;29;20079;-68
2023/05/25 03:36:11;;;;;;;21.07;8.83;;;6.90;99.90;;;;;;4913642;29;20040;-68
2023/05/25 03:38:37;;;;;;;21.25;9.48;;;6.90;99.90;;;;;;4936448;29;20051;-68
2023/05/25 03:41:03;;;;;;;14.98;7.90;;;6.90;99.90;;;;;;4928733;29;20106;-68
2023/05/25 03:43:28;;;;;;;17.25;8.40;;;6.90;99.90;;;;;;4906379;29;20039;-68
2023/05/25 03:45:54;;;;;;;14.50;8.10;;;6.90;99.90;;;;;;4926380;29;20051;-71
2023/05/25 03:48:20;;;;;;;15.00;8.33;;;6.90;99.90;;;;;;4918572;29;20052;-71
2023/05/25 03:50:45;;;;;;;20.83;9.37;;;6.90;99.90;;;;;;4924075;29;20039;-71
2023/05/25 03:53:11;;;;;;;15.77;8.77;;;6.90;99.90;;;;;;4906065;29;20048;-71
2023/05/25 03:55:37;;;;;;;20.37;8.97;;;6.90;99.90;;;;;;4924549;29;20048;-69
2023/05/25 03:58:03;;;;;;;17.03;9.17;;;7.00;99.90;;;;;;4915777;29;20130;-68
2023/05/25 04:00:28;;;;;;;18.03;9.53;;;7.00;99.90;;;;;;4923420;29;20484;-68
2023/05/25 04:02:55;;;;;;;18.47;8.70;;;7.10;99.90;;;;;;4922073;29;20047;-68
2023/05/25 04:05:21;;;;;;;19.83;9.50;;;7.10;99.90;;;;;;4913201;29;20035;-69
2023/05/25 04:07:47;;;;;;;22.83;9.68;;;7.20;99.90;;;;;;4900188;29;20040;-69
2023/05/25 04:10:13;;;;;;;21.77;10.67;;;7.20;99.90;;;;;;4919164;29;20054;-69
2023/05/25 04:12:39;;;;;;;20.47;10.77;;;7.30;99.90;;;;;;4924000;29;20044;-69
2023/05/25 04:15:08;;;;;;;21.55;10.27;;;7.40;99.90;;;;;;4911548;29;20090;-69
2023/05/25 04:17:35;;;;;;;22.33;11.45;;;7.50;99.90;;;;;;4905364;29;20039;-69
2023/05/25 04:20:02;;;;;;;21.70;10.70;;;7.60;99.90;;;;;;4931381;29;20184;-69
2023/05/25 04:22:28;;;;;;;23.13;10.88;;;7.60;99.90;;;;;;4917271;29;20052;-69
2023/05/25 04:24:54;;;;;;;17.63;10.27;;;7.70;99.90;;;;;;4905253;29;20349;-69
2023/05/25 04:27:21;;;;;;;25.93;11.27;;;7.80;99.90;;;;;;4905921;29;20067;-69
2023/05/25 04:29:49;;;;;;;22.98;12.25;;;7.90;99.90;;;;;;4922726;29;20058;-69
2023/05/25 04:32:16;;;;;;;22.38;10.85;;;8.00;99.90;;;;;;4910196;29;20051;-69
2023/05/25 04:34:43;;;;;;;20.83;11.73;;;8.00;99.90;;;;;;4925313;29;20516;-69
2023/05/25 04:37:09;;;;;;;26.52;13.38;;;8.10;99.90;;;;;;4905195;29;20842;-69
2023/05/25 04:39:35;;;;;;;29.77;13.32;;;8.30;99.90;;;;;;4917014;29;20054;-69
2023/05/25 04:42:04;;;;;;;26.57;12.17;;;8.50;99.90;;;;;;4928567;29;20048;-69
2023/05/25 04:44:31;;;;;;;26.13;12.70;;;8.80;99.90;;;;;;4940058;28;20054;-69
2023/05/25 04:46:58;;;;;;;25.75;12.02;;;8.90;99.90;;;;;;4903024;29;20052;-69
2023/05/25 04:49:25;;;;;;;24.65;12.90;;;9.00;99.90;;;;;;4901723;29;20074;-69
2023/05/25 04:51:51;;;;;;;31.27;13.98;;;9.20;99.90;;;;;;4908006;29;20055;-69
2023/05/25 04:54:17;;;;;;;23.27;12.57;;;9.70;99.90;;;;;;4908560;29;20059;-69
2023/05/25 04:56:43;;;;;;;34.42;12.82;;;10.40;99.90;;;;;;4904279;29;20526;-69
2023/05/25 04:59:10;;;;;;;20.95;11.68;;;11.20;99.90;;;;;;4918384;29;20487;-69
2023/05/25 05:01:39;;;;;;;24.80;12.20;;;11.90;99.90;;;;;;4921401;29;20127;-69
2023/05/25 05:04:06;;;;;;;21.40;11.65;;;12.40;99.90;;;;;;4907224;29;20036;-69
2023/05/25 05:06:32;;;;;;;22.48;11.18;;;12.90;99.90;;;;;;4913397;29;20042;-69
2023/05/25 05:08:57;;;;;;;22.03;10.37;;;13.40;99.90;;;;;;4931399;29;20048;-69
2023/05/25 05:11:23;;;;;;;21.00;10.10;;;13.80;99.90;;;;;;4930032;29;20295;-69
2023/05/25 05:13:49;;;;;;;16.70;9.20;;;14.20;99.90;;;;;;4927298;29;20048;-69
2023/05/25 05:16:14;;;;;;;18.13;9.13;;;14.60;99.90;;;;;;4922661;29;20039;-69
2023/05/25 05:18:40;;;;;;;15.70;8.67;;;14.90;99.50;;;;;;4911115;29;20415;-69
2023/05/25 05:21:06;;;;;;;19.30;9.17;;;15.20;99.40;;;;;;4929800;29;20131;-70
2023/05/25 05:23:33;;;;;;;19.23;8.77;;;15.50;98.70;;;;;;4910566;29;20056;-70
2023/05/25 05:25:59;;;;;;;17.70;8.57;;;15.80;97.50;;;;;;4912415;29;20159;-69
2023/05/25 05:28:26;;;;;;;22.93;9.23;;;15.70;95.00;;;;;;4929445;29;20310;-69
2023/05/25 05:30:52;;;;;;;20.10;8.50;;;15.50;96.20;;;;;;4909870;29;20288;-69
2023/05/25 05:33:18;;;;;;;18.67;8.47;;;15.40;97.40;;;;;;4916883;29;20383;-69
2023/05/25 05:35:44;;;;;;;21.73;9.43;;;15.20;97.20;;;;;;4929380;29;20327;-70
2023/05/25 05:38:10;;;;;;;15.17;9.03;;;14.70;97.20;;;;;;4932618;29;20053;-70
2023/05/25 05:40:35;;;;;;;17.50;9.50;;;14.20;99.90;;;;;;4932617;29;20283;-70
2023/05/25 05:43:01;;;;;;;22.60;10.07;;;13.90;99.90;;;;;;4932177;29;20476;-70
2023/05/25 05:45:27;;;;;;;20.17;10.17;;;13.70;99.90;;;;;;4927588;29;20110;-69
2023/05/25 05:47:53;;;;;;;19.27;8.70;;;13.60;99.90;;;;;;4914856;29;20032;-69
2023/05/25 05:50:18;;;;;;;22.83;10.50;;;13.50;99.90;;;;;;4932815;29;20487;-69
2023/05/25 05:52:44;;;;;;;21.47;10.17;;;13.40;99.90;;;;;;4915563;29;20044;-69
2023/05/25 05:55:10;;;;;;;21.27;9.10;;;13.30;99.90;;;;;;4916378;29;20122;-69
2023/05/25 05:57:35;;;;;;;17.77;9.67;;;13.30;99.90;;;;;;4914951;29;20127;-69
2023/05/25 06:00:05;;;;;;;22.43;10.10;;;13.30;99.90;;;;;;4935986;29;20043;-69
2023/05/25 06:02:31;;;;;;;19.47;9.77;;;13.20;99.90;;;;;;4915373;29;20050;-69
2023/05/25 06:04:57;;;;;;;22.93;10.37;;;13.30;99.90;;;;;;4932365;29;20291;-69
2023/05/25 06:07:23;;;;;;;21.47;9.70;;;13.30;99.90;;;;;;4907512;29;20040;-69
2023/05/25 06:09:48;;;;;;;19.47;9.77;;;13.30;99.90;;;;;;4919066;29;20480;-69
2023/05/25 06:12:14;;;;;;;17.27;8.97;;;13.30;99.90;;;;;;4928848;29;20319;-69
2023/05/25 06:14:40;;;;;;;18.03;9.87;;;13.30;99.90;;;;;;4923523;29;20039;-69
2023/05/25 06:17:05;;;;;;;16.83;9.60;;;13.30;99.90;;;;;;4913010;29;20305;-69
2023/05/25 06:19:31;;;;;;;19.53;9.20;;;13.30;99.90;;;;;;4908624;29;20091;-69
2023/05/25 06:21:57;;;;;;;20.83;9.13;;;13.30;99.90;;;;;;4928476;29;20702;-69
2023/05/25 06:24:22;;;;;;;16.13;8.30;;;13.40;99.90;;;;;;4913738;29;20046;-69
2023/05/25 06:26:48;;;;;;;16.20;7.97;;;13.50;99.90;;;;;;4931062;29;20044;-69
2023/05/25 06:29:14;;;;;;;23.60;9.43;;;13.60;99.90;;;;;;4925067;29;20626;-69
2023/05/25 06:31:39;;;;;;;16.50;7.70;;;13.70;99.90;;;;;;4913180;29;20047;-70
2023/05/25 06:34:05;;;;;;;18.10;8.90;;;13.80;99.90;;;;;;4929920;29;20043;-69
2023/05/25 06:36:31;;;;;;;21.17;8.20;;;14.00;99.90;;;;;;4924522;29;20581;-69
2023/05/25 06:38:57;;;;;;;17.30;7.77;;;14.00;99.90;;;;;;4912127;29;20547;-69
2023/05/25 06:41:22;;;;;;;18.37;7.30;;;14.10;99.90;;;;;;4915713;29;20318;-69
2023/05/25 06:43:49;;;;;;;18.80;7.20;;;14.10;99.90;;;;;;4928528;29;20063;-69
2023/05/25 06:46:16;;;;;;;15.73;7.17;;;14.20;99.90;;;;;;4926538;29;20295;-69
2023/05/25 06:48:42;;;;;;;11.43;5.90;;;14.30;99.90;;;;;;4909873;29;20131;-69
2023/05/25 06:51:08;;;;;;;16.77;6.20;;;14.30;99.90;;;;;;4921024;29;20311;-69
2023/05/25 06:53:34;;;;;;;14.97;5.33;;;14.40;99.90;;;;;;4912456;29;20730;-69
2023/05/25 06:56:00;;;;;;;12.43;5.03;;;14.60;99.90;;;;;;4911741;29;20036;-69
2023/05/25 06:58:26;;;;;;;18.10;5.03;;;14.80;99.90;;;;;;4915965;29;20071;-69
2023/05/25 07:00:51;;;;;;;14.90;5.23;;;15.00;99.40;;;;;;4919895;29;20039;-70
2023/05/25 07:03:17;;;;;;;15.37;4.33;;;15.10;98.90;;;;;;4931330;29;20318;-69
2023/05/25 07:05:43;;;;;;;10.87;4.37;;;15.20;96.60;;;;;;4932154;29;20468;-71
2023/05/25 07:08:09;;;;;;;11.00;4.20;;;15.20;95.20;;;;;;4933426;29;20059;-69
2023/05/25 07:10:34;;;;;;;12.77;4.50;;;15.20;94.40;;;;;;4911818;29;20399;-69
2023/05/25 07:13:00;;;;;;;9.50;3.70;;;15.10;94.10;;;;;;4930520;29;20566;-69
2023/05/25 07:15:26;;;;;;;12.50;3.50;;;15.10;94.00;;;;;;4925638;29;20502;-69
2023/05/25 07:17:51;;;;;;;11.73;3.67;;;15.20;92.70;;;;;;4924108;29;20043;-70
2023/05/25 07:20:17;;;;;;;12.50;3.93;;;15.20;92.30;;;;;;4928865;29;20047;-70
2023/05/25 07:22:46;;;;;;;10.50;3.63;;;15.20;91.10;;;;;;4915147;29;20040;-70
2023/05/25 07:25:11;;;;;;;11.47;3.43;;;15.30;90.90;;;;;;4914973;29;20287;-70
2023/05/25 07:27:38;;;;;;;12.67;3.37;;;15.50;91.50;;;;;;4907748;29;20295;-70
2023/05/25 07:30:05;;;;;;;13.20;3.30;;;15.60;90.40;;;;;;4914681;29;20046;-70
2023/05/25 07:32:31;;;;;;;11.97;4.00;;;15.60;87.60;;;;;;4914922;29;20660;-70
2023/05/25 07:34:56;;;;;;;13.80;4.13;;;15.50;86.60;;;;;;4915340;29;20727;-70
2023/05/25 07:37:22;;;;;;;10.67;3.73;;;15.40;87.40;;;;;;4911247;29;20090;-70
2023/05/25 07:39:49;;;;;;;11.83;3.80;;;15.20;88.60;;;;;;4916511;29;20047;-70
2023/05/25 07:42:19;;;;;;;17.37;4.43;;;15.10;89.10;;;;;;4913062;29;20050;-70
2023/05/25 07:44:48;;;;;;;14.30;4.10;;;15.00;90.90;;;;;;4911978;29;20311;-69
2023/05/25 07:47:14;;;;;;;17.80;4.07;;;14.90;90.90;;;;;;4930328;29;20355;-70
2023/05/25 07:49:40;;;;;;;17.90;3.87;;;14.90;90.80;;;;;;4917339;29;20771;-70
2023/05/25 07:52:06;;;;;;;15.80;3.73;;;15.00;90.30;;;;;;4929148;29;20056;-70
2023/05/25 07:54:32;;;;;;;15.60;3.93;;;15.10;89.50;;;;;;4916110;29;20102;-70
2023/05/25 07:56:58;;;;;;;19.93;4.60;;;15.10;86.30;;;;;;4917795;29;20728;-70
2023/05/25 07:59:24;;;;;;;15.97;3.40;;;15.10;85.20;;;;;;4922787;29;20066;-70
2023/05/25 08:01:53;;;;;;;16.47;4.70;;;15.20;85.10;;;;;;4935510;29;20047;-70
2023/05/25 08:04:21;;;;;;;18.33;4.47;;;15.30;85.30;;;;;;4939702;29;20326;-70
2023/05/25 08:06:46;;;;;;;16.43;4.80;;;15.40;83.20;;;;;;4920525;29;20858;-70
2023/05/25 08:09:13;;;;;;;25.77;5.10;;;15.60;82.90;;;;;;4919589;29;20287;-70
2023/05/25 08:11:38;;;;;;;16.60;4.00;;;15.70;82.50;;;;;;4940018;29;20047;-69
2023/05/25 08:14:04;;;;;;;21.30;5.27;;;15.90;81.90;;;;;;4933749;29;20631;-69
2023/05/25 08:16:30;;;;;;;20.90;4.27;;;16.00;81.20;;;;;;4936318;29;20480;-69
2023/05/25 08:18:55;;;;;;;20.30;4.50;;;16.20;80.80;;;;;;4937139;29;20036;-69
2023/05/25 08:21:21;;;;;;;23.13;5.77;;;16.30;80.90;;;;;;4920023;29;20423;-70
2023/05/25 08:23:49;;;;;;;20.67;4.20;;;16.30;80.10;;;;;;4917978;29;20086;-69
2023/05/25 08:26:15;;;;;;;16.77;4.43;;;16.20;78.30;;;;;;4933032;29;20109;-69
2023/05/25 08:28:40;;;;;;;19.63;5.00;;;16.10;78.50;;;;;;4911820;29;20315;-69
2023/05/25 08:31:06;;;;;;;21.07;4.37;;;16.00;77.90;;;;;;4905599;29;20075;-69
2023/05/25 08:33:32;;;;;;;21.43;4.37;;;15.70;78.30;;;;;;4925244;29;20297;-69
2023/05/25 08:35:58;;;;;;;22.43;4.47;;;15.40;78.20;;;;;;4920594;29;20048;-69
2023/05/25 08:38:24;;;;;;;19.17;4.37;;;15.10;78.00;;;;;;4898099;29;20052;-69
2023/05/25 08:41:04;;;;;;;17.33;4.37;;;15.10;77.50;;;;;;4902330;29;20032;-69
2023/05/25 08:43:31;;;;;;;22.60;4.13;;;15.20;75.30;;;;;;4920346;29;20410;-69
2023/05/25 08:46:02;;;;;;;15.20;3.77;;;15.30;74.90;;;;;;4920711;29;20597;-69
2023/05/25 08:48:31;;;;;;;20.43;4.93;;;15.30;72.70;;;;;;4921521;29;20794;-69
2023/05/25 08:51:04;;;;;;;18.03;3.60;;;15.30;74.20;;;;;;4926851;29;20291;-69
2023/05/25 08:53:34;;;;;;;21.30;4.07;;;15.50;73.70;;;;;;4936537;29;20913;-69
2023/05/25 08:56:01;;;;;;;23.70;5.13;;;15.80;73.60;;;;;;4931474;29;20299;-69
2023/05/25 08:58:32;;;;;;;25.70;4.13;;;15.90;72.70;;;;;;4918005;29;20846;-69
2023/05/25 09:01:06;;;;;;;22.27;4.60;;;15.90;71.00;;;;;;4919332;29;20287;-70
2023/05/25 09:03:33;;;;;;;26.63;5.57;;;15.90;71.90;;;;;;4914515;29;20296;-69
2023/05/25 09:05:59;;;;;;;19.40;4.47;;;15.90;72.40;;;;;;4905112;29;20289;-69
2023/05/25 09:08:26;;;;;;;21.30;4.47;;;15.90;71.50;;;;;;4916183;29;20372;-69
2023/05/25 09:10:54;;;;;;;15.17;3.63;;;16.00;69.50;;;;;;4914285;29;20296;-69
2023/05/25 09:13:20;;;;;;;22.40;4.17;;;15.90;69.40;;;;;;4920303;29;20801;-68
2023/05/25 09:15:46;;;;;;;18.40;4.40;;;15.90;68.90;;;;;;4919032;29;20290;-68
2023/05/25 09:18:12;;;;;;;25.70;5.03;;;15.80;67.20;;;;;;4929125;29;20044;-68
2023/05/25 09:20:37;;;;;;;18.73;4.17;;;15.70;68.00;;;;;;4941674;29;20291;-68
2023/05/25 09:23:04;;;;;;;20.23;4.20;;;15.70;66.90;;;;;;4936099;29;20039;-68
2023/05/25 09:25:31;;;;;;;19.60;3.97;;;15.80;64.20;;;;;;4933275;29;20086;-68
2023/05/25 09:27:57;;;;;;;19.23;3.93;;;15.60;65.00;;;;;;4919843;29;20327;-68
2023/05/25 09:30:23;;;;;;;15.23;3.77;;;15.60;65.10;;;;;;4916869;29;20298;-70
2023/05/25 09:32:50;;;;;;;15.27;3.77;;;15.50;63.60;;;;;;4937466;29;20387;-67
2023/05/25 09:35:16;;;;;;;16.87;3.87;;;15.50;62.70;;;;;;4937581;29;20766;-67
2023/05/25 09:37:43;;;;;;;19.83;4.37;;;15.50;63.60;;;;;;4936552;29;20290;-68
2023/05/25 09:40:10;;;;;;;21.80;4.87;;;15.40;62.50;;;;;;4932684;29;20526;-68
2023/05/25 09:42:36;;;;;;;18.40;3.53;;;15.40;63.40;;;;;;4916917;29;20882;-68
2023/05/25 09:45:03;;;;;;;18.13;3.70;;;15.60;63.80;;;;;;4913942;29;20297;-68
2023/05/25 09:47:29;;;;;;;17.33;3.43;;;15.70;62.90;;;;;;4907983;29;20370;-68
2023/05/25 09:49:56;;;;;;;15.67;3.77;;;15.80;62.20;;;;;;4930631;29;20386;-68
2023/05/25 09:52:22;;;;;;;15.83;3.93;;;16.00;61.80;;;;;;4939068;29;20723;-67
2023/05/25 09:54:49;;;;;;;20.50;4.23;;;16.10;61.00;;;;;;4936100;29;20288;-68
2023/05/25 09:57:16;;;;;;;18.30;4.37;;;16.20;62.70;;;;;;4927891;29;20299;-68
2023/05/25 09:59:44;;;;;;;20.37;4.40;;;16.30;61.50;;;;;;4909883;29;20331;-68
2023/05/25 10:02:13;;;;;;;18.13;4.20;;;16.30;60.70;;;;;;4920563;29;20316;-68
2023/05/25 10:04:40;;;;;;;13.70;4.10;;;16.20;58.70;;;;;;4922858;29;20275;-67
2023/05/25 10:07:07;;;;;;;17.73;4.23;;;16.00;59.40;;;;;;4912976;29;20327;-68
2023/05/25 10:09:40;;;;;;;15.10;3.80;;;16.00;60.30;;;;;;4917142;29;20858;-68
2023/05/25 10:12:06;;;;;;;15.97;3.70;;;16.10;60.10;;;;;;4931423;29;20298;-68
2023/05/25 10:14:35;;;;;;;19.10;4.00;;;16.20;59.30;;;;;;4930116;29;20292;-68
2023/05/25 10:17:04;;;;;;;18.03;3.70;;;16.30;60.40;;;;;;4929052;28;20783;-68
2023/05/25 10:19:40;;;;;;;17.97;3.70;;;16.40;59.20;;;;;;4926359;29;20295;-68
2023/05/25 10:22:14;;;;;;;17.27;3.97;;;16.40;58.80;;;;;;4931717;29;20311;-68
2023/05/25 10:25:00;;;;;;;15.18;3.00;;;16.30;58.90;;;;;;4930192;29;20303;-68
2023/05/25 10:27:33;;;;;;;17.23;4.20;;;16.30;59.70;;;;;;4910034;29;20072;-68
2023/05/25 10:30:00;;;;;;;16.07;3.47;;;16.40;60.50;;;;;;4931530;29;20291;-68
2023/05/25 10:32:28;;;;;;;19.10;3.50;;;16.50;58.90;;;;;;4917788;29;20303;-68
2023/05/25 10:34:57;;;;;;;17.50;3.63;;;16.50;58.40;;;;;;4931694;29;20327;-68
2023/05/25 10:37:25;;;;;;;22.20;4.27;;;16.50;58.40;;;;;;4910909;29;20789;-68
2023/05/25 10:39:52;;;;;;;17.77;3.83;;;16.50;58.70;;;;;;4927705;29;20311;-68
2023/05/25 10:42:18;;;;;;;19.97;4.33;;;16.50;58.10;;;;;;4931261;29;20318;-68
2023/05/25 10:44:44;;;;;;;21.60;3.93;;;16.60;56.70;;;;;;4930994;29;20301;-68
2023/05/25 10:47:11;;;;;;;19.50;4.30;;;16.80;57.40;;;;;;4926579;29;20047;-68
2023/05/25 10:49:57;;;;;;;17.20;4.13;;;17.00;57.70;;;;;;4938701;29;20311;-68
2023/05/25 10:52:27;;;;;;;24.43;4.50;;;17.00;57.20;;;;;;4917076;29;20379;-68
2023/05/25 10:55:02;;;;;;;20.47;4.30;;;17.00;57.10;;;;;;4907282;29;20306;-68
2023/05/25 10:57:28;;;;;;;;;;;17.10;58.10;;;;;;4914008;29;20358;-68
2023/05/25 10:59:59;;;;;;;19.80;4.93;;;17.20;57.70;;;;;;4916829;29;19918;-68
2023/05/25 11:02:29;;;;;;;17.00;4.50;;;17.10;58.10;;;;;;4925735;29;20036;-68
2023/05/25 11:05:26;;;;;;;20.63;4.20;;;17.00;59.00;;;;;;4930496;29;20323;-68
2023/05/25 11:08:02;;;;;;;20.37;4.37;;;17.00;57.00;;;;;;4911939;29;20644;-68
2023/05/25 11:10:50;;;;;;;15.50;3.87;;;16.90;57.20;;;;;;4931528;29;20279;-68
2023/05/25 11:13:31;;;;;;;17.60;4.80;;;17.10;57.20;;;;;;4919347;29;20292;-68
2023/05/25 11:16:16;;;;;;;15.40;3.87;;;17.40;57.30;;;;;;4929860;29;20292;-68
2023/05/25 11:19:01;;;;;;;18.20;4.43;;;17.60;55.80;;;;;;4924353;29;20307;-68
2023/05/25 11:21:26;;;;;;;23.83;4.88;;;17.50;56.10;;;;;;4915587;29;20676;-68
2023/05/25 11:24:05;;;;;;;21.87;4.33;;;17.40;56.70;;;;;;4925461;29;20048;-68
2023/05/25 11:26:34;;;;;;;20.67;5.17;;;17.20;56.80;;;;;;4930664;29;20050;-68
2023/05/25 11:29:14;;;;;;;25.13;4.63;;;17.20;57.90;;;;;;4920384;29;20348;-68
2023/05/25 11:31:43;;;;;;;20.40;4.27;;;17.40;58.00;;;;;;4910794;29;20303;-68
2023/05/25 11:34:10;;;;;;;18.90;4.13;;;17.40;56.20;;;;;;4928967;29;20318;-68
2023/05/25 11:36:36;;;;;;;21.10;4.37;;;17.30;56.60;;;;;;4923473;29;20288;-68
2023/05/25 11:39:03;;;;;;;21.87;4.50;;;17.30;56.60;;;;;;4927850;29;20358;-68
2023/05/25 11:41:30;;;;;;;18.73;3.80;;;17.30;56.60;;;;;;4906010;29;20138;-68
2023/05/25 11:44:05;;;;;;;23.30;4.53;;;17.20;55.80;;;;;;4924789;29;20295;-68
2023/05/25 11:46:33;;;;;;;26.67;5.07;;;17.30;56.30;;;;;;4921558;29;20786;-68
2023/05/25 11:48:59;;;;;;;25.73;4.70;;;17.30;57.20;;;;;;4921249;29;20579;-68
2023/05/25 11:51:29;;;;;;;19.93;4.30;;;17.30;57.30;;;;;;4906855;29;20306;-68
2023/05/25 11:53:55;;;;;;;22.00;4.20;;;17.30;57.70;;;;;;4918628;29;20382;-68
2023/05/25 11:56:21;;;;;;;17.37;4.83;;;17.50;56.70;;;;;;4909284;29;20299;-68
2023/05/25 11:58:49;;;;;;;21.30;3.93;;;17.60;56.80;;;;;;4924365;29;20294;-68
2023/05/25 12:01:24;;;;;;;22.07;4.33;;;17.50;56.60;;;;;;4920331;29;21821;-68
2023/05/25 12:03:55;;;;;;;20.77;4.60;;;17.40;55.50;;;;;;4925507;29;20365;-68
2023/05/25 12:06:39;;;;;;;19.20;4.13;;;17.40;56.70;;;;;;4937985;29;20350;-68
2023/05/25 12:09:12;;;;;;;19.27;5.10;;;17.50;55.90;;;;;;4907366;29;20652;-68
2023/05/25 12:11:38;;;;;;;19.97;4.53;;;17.60;56.40;;;;;;4910325;29;20361;-68
2023/05/25 12:14:06;;;;;;;22.93;4.77;;;17.60;55.80;;;;;;4923813;29;20291;-68
2023/05/25 12:16:33;;;;;;;22.73;4.17;;;17.50;56.90;;;;;;4910991;29;20063;-68
2023/05/25 12:19:00;;;;;;;17.37;4.73;;;17.50;56.60;;;;;;4928260;29;20299;-68
2023/05/25 12:21:27;;;;;;;16.87;4.17;;;17.70;56.30;;;;;;4927635;29;20283;-68
2023/05/25 12:23:53;;;;;;;18.70;4.70;;;18.00;57.20;;;;;;4924196;29;20299;-68
2023/05/25 12:26:22;;;;;;;19.33;4.57;;;18.30;55.60;;;;;;4934863;29;20271;-68
2023/05/25 12:29:09;;;;;;;17.70;4.00;;;18.30;55.90;;;;;;4918022;29;20291;-68
2023/05/25 12:31:37;;;;;;;25.10;5.57;;;18.20;54.20;;;;;;4932996;29;20295;-68
2023/05/25 12:34:14;;;;;;;21.37;4.47;;;17.90;55.50;;;;;;4915737;29;20302;-68
2023/05/25 12:36:55;;;;;;;18.60;4.30;;;17.70;57.00;;;;;;4919823;29;20287;-68
2023/05/25 12:39:30;;;;;;;17.60;4.60;;;17.60;56.10;;;;;;4919239;29;20297;-68
2023/05/25 12:42:02;;;;;;;20.98;4.60;;;17.40;56.60;;;;;;4928567;29;20311;-68
2023/05/25 12:44:46;;;;;;;18.57;5.00;;;17.40;57.20;;;;;;4929851;29;20465;-68
2023/05/25 12:47:21;;;;;;;22.53;5.23;;;17.50;57.80;;;;;;4939587;29;20283;-68
2023/05/25 12:50:12;;;;;;;24.33;5.00;;;17.50;57.00;;;;;;4933167;29;20494;-68